Time;durP1;ratioP1;P1;durP2;ratioP2;P2;SDS_P1;SDS_P2;PMS_P1;PMS_P2;Temp;Humidity;BMP_temperature;BMP_pressure;BME280_temperature;BME280_humidity;BME280_pressure;Samples;Min_cycle;Max_cycle;Signal;HPM_P1;HPM_P2
2022/07/02 00:00:07;;;;;;;3.75;2.10;;;13.80;99.90;;;;;;5070456;28;20477;-77
2022/07/02 00:02:36;;;;;;;3.70;2.20;;;13.80;99.90;;;;;;5071916;28;20044;-77
2022/07/02 00:05:05;;;;;;;3.00;2.00;;;13.70;99.90;;;;;;5071330;28;20091;-77
2022/07/02 00:07:31;;;;;;;3.78;2.10;;;13.80;99.90;;;;;;5070127;28;20132;-78
2022/07/02 00:09:58;;;;;;;2.72;1.83;;;13.70;99.90;;;;;;5070122;28;20131;-77
2022/07/02 00:12:27;;;;;;;2.83;2.10;;;13.70;99.90;;;;;;5070995;28;20043;-77
2022/07/02 00:15:00;;;;;;;3.72;1.90;;;13.60;99.90;;;;;;5070537;28;20139;-77
2022/07/02 00:17:26;;;;;;;2.97;2.05;;;13.60;99.90;;;;;;5069479;28;20048;-77
2022/07/02 00:19:53;;;;;;;2.83;1.80;;;13.50;99.90;;;;;;5071536;28;20440;-77
2022/07/02 00:22:19;;;;;;;2.60;1.80;;;13.40;99.90;;;;;;5071252;28;20106;-77
2022/07/02 00:24:46;;;;;;;4.63;2.20;;;13.40;99.90;;;;;;5070673;28;20484;-77
2022/07/02 00:27:14;;;;;;;4.50;2.00;;;13.40;99.90;;;;;;5070121;28;20052;-77
2022/07/02 00:29:45;;;;;;;3.90;2.15;;;13.30;99.90;;;;;;5069436;28;20128;-77
2022/07/02 00:32:11;;;;;;;3.08;2.03;;;13.30;99.90;;;;;;5069864;28;20051;-77
2022/07/02 00:34:38;;;;;;;3.20;1.98;;;13.30;99.90;;;;;;5053463;28;20056;-77
2022/07/02 00:37:06;;;;;;;4.28;2.08;;;13.40;99.90;;;;;;5069194;28;20036;-77
2022/07/02 00:39:32;;;;;;;4.10;2.20;;;13.40;99.90;;;;;;5070989;28;20123;-77
2022/07/02 00:41:59;;;;;;;3.58;2.17;;;13.40;99.90;;;;;;5069413;28;20115;-77
2022/07/02 00:44:26;;;;;;;3.33;2.10;;;13.30;99.90;;;;;;5069899;28;20106;-76
2022/07/02 00:46:53;;;;;;;3.85;2.20;;;13.30;99.90;;;;;;5070913;28;20059;-77
2022/07/02 00:49:20;;;;;;;2.97;2.00;;;13.20;99.90;;;;;;5070816;28;20396;-77
2022/07/02 00:51:46;;;;;;;2.60;2.05;;;13.20;99.90;;;;;;5073420;28;20095;-77
2022/07/02 00:54:12;;;;;;;3.78;2.10;;;13.10;99.90;;;;;;5034798;28;20439;-77
2022/07/02 00:56:38;;;;;;;3.30;2.20;;;13.00;99.90;;;;;;5066495;28;20058;-76
2022/07/02 00:59:04;;;;;;;3.75;2.05;;;12.90;99.90;;;;;;5071015;28;20040;-76
2022/07/02 01:01:30;;;;;;;5.85;2.47;;;13.00;99.90;;;;;;5070627;28;20044;-77
2022/07/02 01:04:00;;;;;;;2.47;1.90;;;13.10;99.90;;;;;;5052854;28;20137;-76
2022/07/02 01:06:26;;;;;;;3.55;2.05;;;13.10;99.90;;;;;;5070605;28;20477;-77
2022/07/02 01:11:41;;;;;;;4.10;2.10;;;13.00;99.90;;;;;;5071015;28;20055;-77
2022/07/02 01:14:07;;;;;;;3.75;2.13;;;13.00;99.90;;;;;;5069798;28;20374;-76
2022/07/02 01:16:33;;;;;;;4.70;2.45;;;12.80;99.90;;;;;;5070904;28;20119;-76
2022/07/02 01:18:58;;;;;;;3.63;2.35;;;12.70;99.90;;;;;;5053074;28;20059;-77
2022/07/02 01:21:24;;;;;;;5.28;2.50;;;12.70;99.90;;;;;;5069464;28;20048;-77
2022/07/02 01:23:50;;;;;;;5.65;3.05;;;12.70;99.90;;;;;;5070274;28;20044;-77
2022/07/02 01:26:15;;;;;;;3.95;2.30;;;12.60;99.90;;;;;;5070186;28;20049;-76
2022/07/02 01:28:41;;;;;;;3.78;2.72;;;12.60;99.90;;;;;;5070344;28;20045;-76
2022/07/02 01:31:07;;;;;;;4.47;2.22;;;12.50;99.90;;;;;;5070853;28;20134;-76
2022/07/02 01:33:32;;;;;;;2.75;2.20;;;12.50;99.90;;;;;;5070696;28;20174;-77
2022/07/02 01:35:58;;;;;;;3.20;2.50;;;12.50;99.90;;;;;;5069482;28;20405;-77
2022/07/02 01:38:24;;;;;;;4.15;3.00;;;12.50;99.90;;;;;;5070300;28;20084;-76
2022/07/02 01:40:50;;;;;;;3.10;2.47;;;12.50;99.90;;;;;;5068778;28;20052;-76
2022/07/02 01:43:15;;;;;;;4.30;2.70;;;12.50;99.90;;;;;;5070367;28;20383;-76
2022/07/02 01:45:41;;;;;;;3.90;2.58;;;12.50;99.90;;;;;;5070187;28;20049;-77
2022/07/02 01:48:07;;;;;;;3.50;2.42;;;12.50;99.90;;;;;;5070566;28;20396;-77
2022/07/02 01:50:36;;;;;;;6.50;2.80;;;12.60;99.90;;;;;;5052363;28;20051;-75
2022/07/02 01:53:02;;;;;;;5.22;2.85;;;12.60;99.90;;;;;;5069329;28;20060;-77
2022/07/02 01:55:28;;;;;;;3.58;2.70;;;12.60;99.90;;;;;;5068378;28;20047;-77
2022/07/02 01:57:54;;;;;;;4.18;2.53;;;12.60;99.90;;;;;;5070504;28;20061;-77
2022/07/02 02:00:19;;;;;;;3.90;2.78;;;12.70;99.90;;;;;;5069005;28;20094;-77
2022/07/02 02:02:46;;;;;;;5.05;2.75;;;12.60;99.90;;;;;;5068577;28;20056;-77
2022/07/02 02:05:12;;;;;;;4.35;2.70;;;12.70;99.90;;;;;;5070018;28;20493;-77
2022/07/02 02:07:37;;;;;;;5.72;2.80;;;12.70;99.90;;;;;;5070471;28;20056;-77
2022/07/02 02:10:04;;;;;;;3.30;2.85;;;12.80;99.90;;;;;;5069224;28;20048;-77
2022/07/02 02:12:29;;;;;;;5.15;2.80;;;12.70;99.90;;;;;;5069124;28;20052;-77
2022/07/02 02:14:55;;;;;;;4.60;2.70;;;12.80;99.90;;;;;;5052279;28;20128;-77
2022/07/02 02:17:21;;;;;;;4.03;2.63;;;12.70;99.90;;;;;;5073275;28;20052;-78
2022/07/02 02:19:47;;;;;;;4.82;3.25;;;12.80;99.90;;;;;;5073632;28;20052;-77
2022/07/02 02:22:12;;;;;;;4.85;2.80;;;12.80;99.90;;;;;;5073850;28;20123;-77
2022/07/02 02:24:38;;;;;;;5.28;2.70;;;12.80;99.90;;;;;;5073013;28;20045;-77
2022/07/02 02:27:04;;;;;;;4.93;2.80;;;12.80;99.90;;;;;;5071052;28;20693;-77
2022/07/02 02:29:30;;;;;;;3.90;2.72;;;12.80;99.90;;;;;;5072679;28;20048;-76
2022/07/02 02:31:55;;;;;;;4.82;2.70;;;12.80;99.90;;;;;;5071884;28;20076;-77
2022/07/02 02:34:21;;;;;;;6.07;2.70;;;12.80;99.90;;;;;;5073363;28;20045;-77
2022/07/02 02:36:47;;;;;;;5.25;3.15;;;12.80;99.90;;;;;;5072843;28;20131;-76
2022/07/02 02:39:13;;;;;;;5.38;2.80;;;12.70;99.90;;;;;;5072381;28;20149;-77
2022/07/02 02:41:38;;;;;;;4.38;2.83;;;12.70;99.90;;;;;;5071913;28;20044;-77
2022/07/02 02:44:04;;;;;;;5.05;3.17;;;12.70;99.90;;;;;;5072170;28;20051;-77
2022/07/02 02:46:30;;;;;;;4.90;3.10;;;12.70;99.90;;;;;;5072165;28;20088;-77
2022/07/02 02:48:55;;;;;;;5.05;3.03;;;12.70;99.90;;;;;;5072450;28;20044;-77
2022/07/02 02:51:21;;;;;;;4.13;3.20;;;12.70;99.90;;;;;;5073039;28;20113;-77
2022/07/02 02:53:48;;;;;;;4.05;2.95;;;12.70;99.90;;;;;;5072878;28;20059;-77
2022/07/02 02:56:14;;;;;;;5.32;3.40;;;12.70;99.90;;;;;;5072172;28;20053;-77
2022/07/02 02:58:40;;;;;;;6.05;3.22;;;12.70;99.90;;;;;;5072992;28;20082;-77
2022/07/02 03:01:05;;;;;;;4.40;3.10;;;12.70;99.90;;;;;;5072770;28;20052;-77
2022/07/02 03:03:31;;;;;;;6.10;3.28;;;12.70;99.90;;;;;;5071558;28;20128;-78
2022/07/02 03:05:57;;;;;;;5.18;3.00;;;12.80;99.90;;;;;;5072725;28;20044;-77
2022/07/02 03:08:23;;;;;;;4.00;2.92;;;12.80;99.90;;;;;;5073014;28;20123;-77
2022/07/02 03:10:48;;;;;;;5.78;3.25;;;12.80;99.90;;;;;;5071768;28;20048;-78
2022/07/02 03:13:15;;;;;;;4.47;2.95;;;12.70;99.90;;;;;;5072229;28;20119;-77
2022/07/02 03:15:41;;;;;;;5.13;3.22;;;12.70;99.90;;;;;;5072872;28;20048;-77
2022/07/02 03:18:07;;;;;;;6.30;3.40;;;12.70;99.90;;;;;;5072547;28;20032;-77
2022/07/02 03:20:33;;;;;;;5.10;3.33;;;12.70;99.90;;;;;;5072537;28;20044;-77
2022/07/02 03:22:59;;;;;;;4.10;3.08;;;12.70;99.90;;;;;;5055020;28;20047;-76
2022/07/02 03:25:26;;;;;;;4.93;3.20;;;12.70;99.90;;;;;;5053830;28;20109;-77
2022/07/02 03:27:52;;;;;;;3.90;2.90;;;12.70;99.90;;;;;;5054633;28;20080;-77
2022/07/02 03:30:17;;;;;;;5.55;3.60;;;12.70;99.90;;;;;;5071699;28;20056;-77
2022/07/02 03:32:43;;;;;;;5.25;3.17;;;12.70;99.90;;;;;;5068174;28;20527;-76
2022/07/02 03:35:09;;;;;;;5.80;3.25;;;12.70;99.90;;;;;;5069149;28;20048;-77
2022/07/02 03:37:34;;;;;;;4.57;3.50;;;12.80;99.90;;;;;;5068789;28;20056;-77
2022/07/02 03:40:00;;;;;;;5.40;3.65;;;12.60;99.90;;;;;;5069418;28;20111;-77
2022/07/02 03:42:26;;;;;;;5.47;3.42;;;12.60;99.90;;;;;;5070723;28;20040;-78
2022/07/02 03:44:51;;;;;;;3.72;3.00;;;12.60;99.90;;;;;;5071998;28;20045;-78
2022/07/02 03:47:17;;;;;;;4.10;3.05;;;12.70;99.90;;;;;;5072315;28;20048;-77
2022/07/02 03:49:43;;;;;;;4.85;3.70;;;12.70;99.90;;;;;;5071676;28;20097;-77
2022/07/02 03:52:08;;;;;;;5.47;3.58;;;12.70;99.90;;;;;;5070117;28;20758;-78
2022/07/02 03:54:34;;;;;;;5.15;3.47;;;12.70;99.90;;;;;;5071296;28;20056;-77
2022/07/02 03:57:00;;;;;;;4.72;3.30;;;12.80;99.90;;;;;;5070887;28;20044;-78
2022/07/02 03:59:26;;;;;;;6.50;3.55;;;12.90;99.90;;;;;;5071489;28;20040;-78
2022/07/02 04:01:55;;;;;;;5.03;3.65;;;12.90;99.90;;;;;;5071650;28;20048;-78
2022/07/02 04:04:20;;;;;;;4.55;3.65;;;13.00;99.90;;;;;;5071548;28;20049;-77
2022/07/02 04:06:46;;;;;;;5.07;3.40;;;13.10;99.90;;;;;;5070031;28;20127;-77
2022/07/02 04:09:13;;;;;;;4.88;3.10;;;13.10;99.90;;;;;;5071324;28;20048;-77
2022/07/02 04:11:38;;;;;;;6.20;3.53;;;13.10;99.90;;;;;;5070468;28;20044;-77
2022/07/02 04:14:04;;;;;;;4.97;3.45;;;13.20;99.90;;;;;;5053835;28;20060;-76
2022/07/02 04:16:30;;;;;;;5.85;3.65;;;13.20;99.90;;;;;;5070356;28;20079;-78
2022/07/02 04:18:56;;;;;;;3.70;3.20;;;13.30;99.90;;;;;;5070378;28;20119;-77
2022/07/02 04:21:22;;;;;;;4.70;3.75;;;13.40;99.90;;;;;;5071470;28;20045;-77
2022/07/02 04:23:48;;;;;;;4.13;3.53;;;13.40;99.90;;;;;;5071248;28;20099;-77
2022/07/02 04:26:14;;;;;;;5.10;3.85;;;13.50;99.90;;;;;;5069162;28;20044;-78
2022/07/02 04:28:39;;;;;;;4.97;3.83;;;13.50;99.90;;;;;;5070694;28;20048;-78
2022/07/02 04:31:05;;;;;;;5.32;3.65;;;13.50;99.90;;;;;;5053678;28;20045;-77
2022/07/02 04:33:31;;;;;;;4.78;3.75;;;13.60;99.90;;;;;;5070852;28;20124;-77
2022/07/02 04:35:56;;;;;;;6.18;3.75;;;13.60;99.90;;;;;;5070966;28;20554;-77
2022/07/02 04:38:22;;;;;;;4.13;3.40;;;13.70;99.90;;;;;;5069397;28;20091;-76
2022/07/02 04:40:48;;;;;;;5.88;3.60;;;13.70;99.90;;;;;;5052936;28;20056;-79
2022/07/02 04:43:14;;;;;;;5.18;3.35;;;13.80;99.90;;;;;;5071993;28;20051;-77
2022/07/02 04:45:39;;;;;;;5.72;4.15;;;13.90;99.90;;;;;;5072110;28;20055;-77
2022/07/02 04:48:05;;;;;;;6.18;3.47;;;14.00;99.90;;;;;;5072954;28;20044;-77
2022/07/02 04:50:31;;;;;;;4.50;3.70;;;14.10;99.90;;;;;;5069046;28;20684;-77
2022/07/02 04:52:56;;;;;;;6.20;3.80;;;14.20;99.90;;;;;;5060716;28;20060;-78
2022/07/02 04:55:22;;;;;;;5.85;3.70;;;14.20;99.90;;;;;;5069484;28;20367;-75
2022/07/02 04:57:48;;;;;;;5.57;3.63;;;14.30;99.90;;;;;;5069767;28;20447;-77
2022/07/02 05:00:14;;;;;;;6.68;3.83;;;14.40;99.90;;;;;;5069862;28;20128;-77
2022/07/02 05:02:39;;;;;;;4.97;4.47;;;14.40;99.90;;;;;;5069373;28;20041;-77
2022/07/02 05:05:06;;;;;;;6.57;3.22;;;14.50;99.90;;;;;;5036059;28;20129;-77
2022/07/02 05:07:31;;;;;;;6.28;3.67;;;14.60;99.90;;;;;;5069801;28;20509;-78
2022/07/02 05:10:00;;;;;;;5.20;3.58;;;14.60;99.90;;;;;;5070404;28;20053;-77
2022/07/02 05:12:26;;;;;;;5.18;3.55;;;14.70;99.90;;;;;;5069640;28;20121;-75
2022/07/02 05:14:51;;;;;;;5.15;3.38;;;14.80;99.90;;;;;;5069927;28;20469;-76
2022/07/02 05:17:18;;;;;;;5.28;3.58;;;14.90;99.90;;;;;;5052889;28;20055;-78
2022/07/02 05:19:44;;;;;;;4.38;3.30;;;14.90;99.90;;;;;;5069215;28;20516;-78
2022/07/02 05:22:10;;;;;;;4.80;3.35;;;14.90;99.90;;;;;;5070712;28;20040;-77
2022/07/02 05:24:35;;;;;;;4.45;4.05;;;15.00;99.90;;;;;;5070551;28;20383;-78
2022/07/02 05:27:01;;;;;;;4.70;3.70;;;15.10;99.90;;;;;;5069259;28;20044;-78
2022/07/02 05:29:27;;;;;;;5.45;3.55;;;15.10;99.90;;;;;;5051952;28;20490;-77
2022/07/02 05:31:53;;;;;;;4.72;3.63;;;15.10;99.90;;;;;;5070666;28;20102;-77
2022/07/02 05:34:18;;;;;;;6.15;3.78;;;15.20;99.90;;;;;;5069448;28;20119;-77
2022/07/02 05:36:44;;;;;;;6.80;3.70;;;15.20;99.90;;;;;;5069221;28;20572;-79
2022/07/02 05:39:10;;;;;;;7.28;4.15;;;15.20;99.90;;;;;;5069702;28;20048;-78
2022/07/02 05:41:35;;;;;;;4.90;3.85;;;15.30;99.90;;;;;;5070509;28;20044;-76
2022/07/02 05:44:01;;;;;;;5.82;3.80;;;15.40;99.90;;;;;;5070482;28;20044;-78
2022/07/02 05:46:26;;;;;;;4.85;3.63;;;15.40;99.90;;;;;;5070430;28;20110;-77
2022/07/02 05:48:52;;;;;;;5.78;4.25;;;15.50;99.90;;;;;;5070233;28;20076;-77
2022/07/02 05:51:18;;;;;;;5.20;3.90;;;15.60;99.90;;;;;;5070539;28;20082;-77
2022/07/02 05:53:43;;;;;;;5.28;3.42;;;15.60;99.90;;;;;;5073992;28;20057;-77
2022/07/02 05:56:09;;;;;;;4.80;3.45;;;15.70;99.90;;;;;;5073748;28;20139;-76
2022/07/02 05:58:35;;;;;;;4.45;3.70;;;15.80;99.90;;;;;;5074242;28;20055;-77
2022/07/02 06:01:00;;;;;;;4.53;3.42;;;15.80;99.90;;;;;;5073066;28;20059;-78
2022/07/02 06:03:26;;;;;;;5.47;3.20;;;15.90;99.90;;;;;;5073943;28;20442;-77
2022/07/02 06:08:38;;;;;;;6.32;2.90;;;16.00;99.90;;;;;;5069753;28;20048;-77
2022/07/02 06:11:04;;;;;;;3.00;2.38;;;16.10;99.90;;;;;;5073943;28;20409;-77
2022/07/02 06:13:30;;;;;;;3.25;2.50;;;16.10;99.90;;;;;;5052668;28;20037;-77
2022/07/02 06:15:55;;;;;;;3.10;2.22;;;16.20;99.90;;;;;;5069448;28;20138;-77
2022/07/02 06:18:21;;;;;;;2.85;1.90;;;16.30;99.90;;;;;;5072608;28;20055;-77
2022/07/02 06:20:47;;;;;;;2.38;1.70;;;16.40;99.90;;;;;;5073548;28;20049;-78
2022/07/02 06:23:12;;;;;;;3.05;1.88;;;16.50;99.90;;;;;;5071826;28;20062;-77
2022/07/02 06:25:38;;;;;;;4.00;1.73;;;16.50;99.90;;;;;;5073140;28;20056;-77
2022/07/02 06:28:04;;;;;;;3.03;1.60;;;16.60;99.90;;;;;;5072694;28;20067;-76
2022/07/02 06:30:30;;;;;;;3.90;2.00;;;16.70;99.90;;;;;;5073440;28;20044;-76
2022/07/02 06:32:55;;;;;;;4.25;2.10;;;16.70;99.90;;;;;;5073357;28;20041;-77
2022/07/02 06:35:21;;;;;;;4.63;1.90;;;16.70;99.90;;;;;;5055538;28;20044;-76
2022/07/02 06:37:47;;;;;;;5.03;2.30;;;16.90;99.90;;;;;;5072111;28;20040;-76
2022/07/02 06:40:12;;;;;;;3.35;1.98;;;16.90;99.90;;;;;;5073444;28;20491;-77
2022/07/02 06:42:38;;;;;;;3.92;2.15;;;17.00;99.90;;;;;;5055540;28;20473;-78
2022/07/02 06:45:05;;;;;;;3.55;2.10;;;17.00;99.90;;;;;;5035699;28;20052;-78
2022/07/02 06:47:32;;;;;;;3.15;1.90;;;17.10;99.90;;;;;;5081115;28;20113;-78
2022/07/02 06:49:58;;;;;;;3.17;1.83;;;17.20;99.90;;;;;;5064474;28;20058;-77
2022/07/02 06:52:25;;;;;;;2.70;1.77;;;17.30;99.90;;;;;;5071706;28;20591;-78
2022/07/02 06:54:50;;;;;;;3.47;1.50;;;17.30;99.90;;;;;;5072615;28;20132;-77
2022/07/02 06:57:16;;;;;;;3.72;1.60;;;17.40;99.90;;;;;;5071786;28;20127;-69
2022/07/02 06:59:42;;;;;;;3.55;1.80;;;17.40;99.90;;;;;;5073064;28;20055;-69
2022/07/02 07:02:08;;;;;;;2.47;1.55;;;17.50;99.90;;;;;;5072185;28;20500;-69
2022/07/02 07:04:35;;;;;;;2.38;1.40;;;17.50;99.90;;;;;;5072910;28;20102;-70
2022/07/02 07:07:03;;;;;;;3.05;1.80;;;17.60;99.90;;;;;;5072781;28;20056;-69
2022/07/02 07:09:30;;;;;;;3.58;1.58;;;17.60;99.90;;;;;;5072802;28;20401;-69
2022/07/02 07:11:56;;;;;;;3.42;1.60;;;17.60;99.90;;;;;;5054994;28;20052;-69
2022/07/02 07:14:23;;;;;;;2.15;1.55;;;17.60;99.90;;;;;;5071422;28;20131;-69
2022/07/02 07:16:49;;;;;;;3.28;1.50;;;17.60;99.90;;;;;;5066978;28;20121;-70
2022/07/02 07:19:15;;;;;;;2.63;1.40;;;17.60;99.90;;;;;;5066996;28;20041;-69
2022/07/02 07:21:42;;;;;;;2.25;1.40;;;17.80;99.90;;;;;;5071898;28;20044;-69
2022/07/02 07:24:09;;;;;;;2.47;1.30;;;17.80;99.90;;;;;;5060914;28;20433;-69
2022/07/02 07:26:36;;;;;;;2.35;1.40;;;17.90;99.90;;;;;;5060279;28;20396;-69
2022/07/02 07:29:02;;;;;;;3.10;1.40;;;18.10;99.90;;;;;;5063297;28;20131;-69
2022/07/02 07:31:28;;;;;;;2.63;1.20;;;18.10;99.90;;;;;;5068878;28;20377;-69
2022/07/02 07:33:56;;;;;;;3.45;1.20;;;18.10;99.90;;;;;;5070611;28;20477;-70
2022/07/02 07:36:23;;;;;;;3.22;1.40;;;18.20;99.90;;;;;;5065618;28;20120;-69
2022/07/02 07:38:50;;;;;;;1.92;1.15;;;18.30;99.90;;;;;;5056928;28;20362;-69
2022/07/02 07:41:17;;;;;;;2.25;1.30;;;18.30;99.90;;;;;;5062987;28;20040;-69
2022/07/02 07:43:44;;;;;;;2.78;1.25;;;18.30;99.90;;;;;;5058580;28;21377;-69
2022/07/02 07:46:09;;;;;;;1.52;0.73;;;18.40;99.90;;;;;;5069625;28;20051;-69
2022/07/02 07:48:35;;;;;;;2.85;1.15;;;18.40;99.90;;;;;;5065028;28;20045;-70
2022/07/02 07:51:01;;;;;;;2.47;0.93;;;18.50;99.90;;;;;;5051783;28;20053;-69
2022/07/02 07:53:27;;;;;;;2.90;1.05;;;18.50;99.90;;;;;;5051731;28;20084;-69
2022/07/02 07:55:53;;;;;;;2.58;1.20;;;18.60;99.90;;;;;;5057054;28;20075;-69
2022/07/02 07:58:19;;;;;;;1.95;0.93;;;18.60;99.90;;;;;;5067431;28;20049;-69
2022/07/02 08:00:46;;;;;;;1.63;0.65;;;18.70;99.90;;;;;;5060726;28;20481;-69
2022/07/02 08:03:14;;;;;;;1.45;0.80;;;18.80;99.90;;;;;;5065844;28;20037;-70
2022/07/02 08:05:42;;;;;;;1.38;0.80;;;18.80;99.90;;;;;;5051174;28;20458;-69
2022/07/02 08:08:08;;;;;;;1.88;0.68;;;18.90;99.90;;;;;;5054034;28;20511;-69
2022/07/02 08:10:34;;;;;;;1.63;0.60;;;19.00;99.90;;;;;;5053532;28;20053;-69
2022/07/02 08:13:00;;;;;;;1.60;0.77;;;19.00;99.90;;;;;;5060015;28;20077;-68
2022/07/02 08:15:26;;;;;;;2.65;0.70;;;19.10;99.90;;;;;;5056941;28;20208;-68
2022/07/02 08:17:53;;;;;;;1.50;0.57;;;19.10;99.90;;;;;;5049928;28;20080;-72
2022/07/02 08:20:19;;;;;;;1.38;0.63;;;19.20;99.90;;;;;;5054942;28;20441;-69
2022/07/02 08:22:46;;;;;;;1.33;0.60;;;19.30;99.90;;;;;;5056841;28;20059;-69
2022/07/02 08:25:14;;;;;;;2.28;0.70;;;19.30;99.90;;;;;;5060275;28;20502;-69
2022/07/02 08:27:41;;;;;;;1.60;0.60;;;19.40;99.90;;;;;;5060399;28;20084;-72
2022/07/02 08:30:07;;;;;;;2.55;0.60;;;19.40;99.90;;;;;;5056764;28;20048;-68
2022/07/02 08:32:33;;;;;;;3.28;0.80;;;19.40;99.90;;;;;;5065736;28;20131;-69
2022/07/02 08:34:59;;;;;;;1.75;0.70;;;19.40;99.90;;;;;;5059339;28;20132;-67
2022/07/02 08:37:26;;;;;;;2.67;0.70;;;19.50;99.90;;;;;;5059551;28;20668;-70
2022/07/02 08:39:52;;;;;;;2.85;0.68;;;19.60;99.90;;;;;;5069300;28;20043;-68
2022/07/02 08:42:29;;;;;;;1.63;0.60;;;19.60;99.90;;;;;;5067882;28;20047;-69
2022/07/02 08:44:58;;;;;;;1.30;0.50;;;19.70;99.90;;;;;;5068168;28;20494;-68
2022/07/02 08:47:25;;;;;;;2.00;0.65;;;19.80;99.90;;;;;;5069402;28;20052;-70
2022/07/02 08:49:53;;;;;;;2.45;0.68;;;19.90;99.90;;;;;;5067422;28;20051;-69
2022/07/02 08:52:20;;;;;;;2.20;0.77;;;20.00;99.90;;;;;;5070075;28;20113;-68
2022/07/02 08:54:47;;;;;;;1.60;0.65;;;20.10;99.90;;;;;;5062662;28;20578;-68
2022/07/02 08:57:14;;;;;;;2.25;0.73;;;20.10;99.90;;;;;;5069666;28;20076;-68
2022/07/02 08:59:40;;;;;;;1.40;0.60;;;20.10;99.90;;;;;;5066675;28;20476;-69
2022/07/02 09:02:06;;;;;;;1.40;0.50;;;20.10;99.90;;;;;;5047434;28;20045;-69
2022/07/02 09:04:34;;;;;;;2.47;0.70;;;20.20;99.90;;;;;;5052402;28;20110;-69
2022/07/02 09:07:03;;;;;;;3.88;0.70;;;20.30;99.90;;;;;;5065137;28;20087;-69
2022/07/02 09:09:30;;;;;;;1.48;0.60;;;20.30;99.90;;;;;;5050032;28;20041;-70
2022/07/02 09:11:57;;;;;;;2.45;0.80;;;20.30;99.90;;;;;;5073799;28;21818;-71
2022/07/02 09:14:23;;;;;;;1.42;0.70;;;20.10;99.90;;;;;;5067454;28;20045;-70
2022/07/02 09:16:50;;;;;;;2.55;0.80;;;20.10;99.90;;;;;;5068271;28;20347;-70
2022/07/02 09:19:17;;;;;;;1.30;0.50;;;20.10;99.90;;;;;;5056267;28;20124;-69
2022/07/02 09:21:46;;;;;;;1.48;0.60;;;20.10;99.90;;;;;;5067380;28;20051;-68
2022/07/02 09:24:12;;;;;;;2.58;0.75;;;20.10;99.90;;;;;;5053244;28;20064;-70
2022/07/02 09:26:38;;;;;;;2.50;0.70;;;20.20;99.90;;;;;;5053142;28;20053;-70
2022/07/02 09:29:04;;;;;;;1.40;0.70;;;20.20;99.90;;;;;;5076711;28;20379;-69
2022/07/02 09:31:47;;;;;;;1.90;0.60;;;20.20;99.90;;;;;;5059968;28;20048;-70
2022/07/02 09:34:24;;;;;;;2.50;0.80;;;20.10;99.90;;;;;;5067992;28;20036;-70
2022/07/02 09:36:49;;;;;;;2.58;0.82;;;19.90;99.90;;;;;;5057736;28;20053;-70
2022/07/02 09:39:29;;;;;;;1.30;0.60;;;19.90;99.90;;;;;;5061329;28;20051;-70
2022/07/02 09:41:56;;;;;;;2.60;0.70;;;20.10;99.90;;;;;;5044880;28;20057;-71
2022/07/02 09:44:22;;;;;;;3.40;1.20;;;20.10;99.90;;;;;;5067292;28;20044;-71
2022/07/02 09:46:47;;;;;;;2.22;0.82;;;20.10;99.90;;;;;;5056892;28;20124;-70
2022/07/02 09:49:15;;;;;;;3.25;0.77;;;20.20;99.90;;;;;;5058532;28;20058;-69
2022/07/02 09:51:54;;;;;;;2.78;0.90;;;20.40;99.90;;;;;;5061624;28;20057;-69
2022/07/02 09:54:24;;;;;;;1.90;0.88;;;20.60;99.90;;;;;;5054629;28;20112;-69
2022/07/02 09:56:55;;;;;;;2.13;0.90;;;20.80;99.90;;;;;;5071436;28;20060;-69
2022/07/02 09:59:22;;;;;;;2.15;0.90;;;20.80;99.90;;;;;;5071542;28;20063;-68
2022/07/02 10:01:48;;;;;;;2.53;0.98;;;20.80;99.90;;;;;;5062664;28;20172;-71
2022/07/02 10:04:14;;;;;;;2.47;0.80;;;20.90;99.90;;;;;;5065095;28;20118;-69
2022/07/02 10:06:42;;;;;;;3.38;1.10;;;20.90;99.90;;;;;;5056262;28;20555;-71
2022/07/02 10:09:08;;;;;;;1.95;0.82;;;20.80;99.90;;;;;;5054812;28;20079;-70
2022/07/02 10:11:36;;;;;;;1.77;0.77;;;20.70;99.90;;;;;;5056516;28;20049;-68
2022/07/02 10:14:04;;;;;;;1.60;0.60;;;20.80;99.90;;;;;;5051208;28;20116;-69
2022/07/02 10:16:31;;;;;;;1.58;0.90;;;20.80;99.90;;;;;;5060928;28;20044;-69
2022/07/02 10:19:01;;;;;;;2.42;0.70;;;20.90;99.90;;;;;;5059038;28;20052;-68
2022/07/02 10:21:28;;;;;;;4.18;1.05;;;21.00;99.90;;;;;;5056785;28;20143;-68
2022/07/02 10:23:54;;;;;;;1.63;0.80;;;21.10;99.90;;;;;;5056619;28;20081;-71
2022/07/02 10:26:22;;;;;;;3.13;0.95;;;21.20;99.90;;;;;;5051603;28;20110;-68
2022/07/02 10:28:49;;;;;;;2.65;1.00;;;21.30;99.90;;;;;;5084023;28;20056;-70
2022/07/02 10:31:20;;;;;;;1.50;0.80;;;21.30;99.90;;;;;;5056989;28;20049;-70
2022/07/02 10:34:01;;;;;;;2.53;0.90;;;21.30;99.90;;;;;;5054954;28;20512;-69
2022/07/02 10:36:27;;;;;;;1.52;0.70;;;21.30;99.90;;;;;;5055468;28;20524;-69
2022/07/02 10:38:58;;;;;;;2.30;0.93;;;21.30;99.90;;;;;;5050058;28;20120;-68
2022/07/02 10:41:28;;;;;;;1.60;0.70;;;21.30;99.90;;;;;;5051902;28;20044;-68
2022/07/02 10:43:56;;;;;;;1.88;0.80;;;21.20;99.90;;;;;;5050362;28;20136;-68
2022/07/02 10:46:26;;;;;;;2.95;0.90;;;21.10;99.90;;;;;;5051438;28;20095;-69
2022/07/02 10:49:00;;;;;;;1.77;0.80;;;21.10;99.90;;;;;;5084192;28;20127;-69
2022/07/02 10:51:32;;;;;;;1.13;0.60;;;21.00;99.90;;;;;;5051771;28;20056;-68
2022/07/02 10:54:00;;;;;;;1.20;0.70;;;20.90;99.90;;;;;;5049508;28;20082;-70
2022/07/02 10:56:27;;;;;;;1.52;0.85;;;20.80;99.90;;;;;;5051217;28;20110;-69
2022/07/02 10:58:52;;;;;;;2.38;0.70;;;20.90;99.90;;;;;;5050241;28;20559;-71
2022/07/02 11:01:21;;;;;;;4.93;1.00;;;20.90;99.90;;;;;;5080949;28;20045;-71
2022/07/02 11:04:01;;;;;;;2.95;0.80;;;20.70;99.90;;;;;;5059589;28;20122;-69
2022/07/02 11:06:31;;;;;;;2.67;0.90;;;20.70;99.90;;;;;;5055164;28;20093;-68
2022/07/02 11:09:05;;;;;;;2.65;1.00;;;20.80;99.90;;;;;;5063523;28;20040;-68
2022/07/02 11:11:36;;;;;;;2.03;0.68;;;21.00;99.90;;;;;;5063495;28;20727;-68
2022/07/02 11:14:13;;;;;;;2.65;0.90;;;21.20;99.90;;;;;;5065831;28;20040;-70
2022/07/02 11:16:41;;;;;;;3.08;0.93;;;21.10;99.90;;;;;;5061106;28;20408;-68
2022/07/02 11:19:20;;;;;;;1.95;1.00;;;21.20;99.90;;;;;;5051113;28;20056;-69
2022/07/02 11:21:47;;;;;;;1.90;1.10;;;21.30;99.90;;;;;;5050746;28;20517;-69
2022/07/02 11:24:18;;;;;;;1.88;0.88;;;21.50;99.90;;;;;;5050432;28;20044;-67
2022/07/02 11:26:45;;;;;;;2.47;1.00;;;21.50;99.90;;;;;;5049604;28;20041;-67
2022/07/02 11:29:11;;;;;;;2.50;0.93;;;21.40;99.90;;;;;;5050724;28;20124;-68
2022/07/02 11:31:48;;;;;;;2.33;0.90;;;21.10;99.90;;;;;;5064883;28;20394;-70
2022/07/02 11:34:22;;;;;;;1.60;0.70;;;20.80;99.90;;;;;;5057601;28;20052;-68
2022/07/02 11:36:49;;;;;;;1.27;0.70;;;20.70;99.90;;;;;;5033164;28;20478;-68
2022/07/02 11:39:17;;;;;;;2.75;0.90;;;20.50;99.90;;;;;;5050654;28;20119;-70
2022/07/02 11:41:44;;;;;;;1.85;0.98;;;20.50;99.90;;;;;;5066155;28;20051;-68
2022/07/02 11:44:22;;;;;;;1.83;0.80;;;20.60;99.90;;;;;;5064938;28;20090;-70
2022/07/02 11:46:59;;;;;;;2.78;0.90;;;20.60;99.90;;;;;;5050080;28;20075;-69
2022/07/02 11:49:32;;;;;;;2.40;0.90;;;20.60;99.90;;;;;;5050013;28;20055;-69
2022/07/02 11:51:58;;;;;;;2.08;0.95;;;20.60;99.90;;;;;;5048389;28;20155;-70
2022/07/02 11:54:26;;;;;;;1.50;0.90;;;20.60;99.90;;;;;;5047834;28;20131;-69
2022/07/02 11:56:53;;;;;;;2.47;0.98;;;20.80;99.90;;;;;;5059632;28;20121;-69
2022/07/02 11:59:21;;;;;;;3.38;1.13;;;21.10;99.90;;;;;;5057469;28;20048;-69
2022/07/02 12:01:48;;;;;;;1.95;0.90;;;21.10;99.90;;;;;;5047967;28;20143;-69
2022/07/02 12:04:19;;;;;;;2.53;1.13;;;21.10;99.90;;;;;;5065033;28;20049;-68
2022/07/02 12:06:48;;;;;;;1.73;1.00;;;21.00;99.90;;;;;;5058651;28;20056;-68
2022/07/02 12:09:15;;;;;;;2.30;0.80;;;20.90;99.90;;;;;;5066955;28;20082;-68
2022/07/02 12:11:44;;;;;;;2.55;0.95;;;20.90;99.90;;;;;;5051510;28;20044;-69
2022/07/02 12:14:11;;;;;;;2.78;1.10;;;20.90;99.90;;;;;;5049528;28;20031;-70
2022/07/02 12:16:42;;;;;;;1.70;0.75;;;20.90;99.90;;;;;;5049471;28;20053;-68
2022/07/02 12:19:16;;;;;;;3.10;1.00;;;20.90;99.90;;;;;;5054427;28;20090;-68
2022/07/02 12:21:47;;;;;;;2.40;0.93;;;21.10;99.90;;;;;;5057605;28;20124;-69
2022/07/02 12:24:34;;;;;;;2.30;0.95;;;21.20;99.90;;;;;;5052784;28;20045;-70
2022/07/02 12:27:05;;;;;;;1.83;1.00;;;21.30;99.90;;;;;;5054332;28;20094;-69
2022/07/02 12:29:56;;;;;;;2.67;0.95;;;21.30;99.90;;;;;;5052324;28;20562;-69
2022/07/02 12:32:24;;;;;;;2.05;0.88;;;21.20;99.90;;;;;;5053009;28;20044;-72
2022/07/02 12:34:58;;;;;;;2.45;1.05;;;21.20;99.90;;;;;;5053807;28;20512;-68
2022/07/02 12:37:23;;;;;;;1.67;0.80;;;21.20;99.90;;;;;;5057105;28;20056;-69
2022/07/02 12:39:55;;;;;;;2.08;0.90;;;21.20;99.90;;;;;;5051927;28;20048;-69
2022/07/02 12:42:23;;;;;;;1.95;0.80;;;21.20;99.90;;;;;;5055465;28;20043;-68
2022/07/02 12:44:57;;;;;;;2.13;0.80;;;21.30;99.90;;;;;;5057899;28;20058;-71
2022/07/02 12:47:24;;;;;;;2.92;1.13;;;21.50;99.90;;;;;;5059110;28;20255;-72
2022/07/02 12:49:59;;;;;;;2.63;0.77;;;21.70;99.90;;;;;;5064817;28;20044;-70
2022/07/02 12:52:27;;;;;;;3.05;1.00;;;22.00;99.90;;;;;;5063626;28;20060;-70